Estación de La capilla
Ultimos registro cada 15 minutos 81
| N° | Estación | Fecha / Hora | Temperatura | Humedad | Lluvia | Velocidad | Dirección | Radiación | Presion |
| 81 | La capilla | 06-05-2026 20:15 | 10,1 | 81 | 0 | 1,3 | 360 | 0 | 1095 |
| 80 | La capilla | 06-05-2026 20:00 | 10,1 | 82 | 0 | 0,4 | 360 | 0 | 1094,7 |
| 79 | La capilla | 06-05-2026 19:45 | 10,1 | 82 | 0 | 1,8 | 360 | 0 | 1094,3 |
| 78 | La capilla | 06-05-2026 19:30 | 9,9 | 83 | 0 | 0,9 | 360 | 0 | 1094 |
| 77 | La capilla | 06-05-2026 19:15 | 9,9 | 83 | 0 | 1,8 | 360 | 0 | 1093,7 |
| 76 | La capilla | 06-05-2026 19:00 | 9,7 | 83 | 0 | 1,3 | 360 | 0 | 1093,4 |
| 75 | La capilla | 06-05-2026 18:45 | 9,6 | 82 | 0 | 0,4 | 360 | 0 | 1093 |
| 74 | La capilla | 06-05-2026 18:30 | 10 | 80 | 0 | 0 | 360 | 0 | 1092,6 |
| 73 | La capilla | 06-05-2026 18:15 | 10,6 | 77 | 0 | 1,8 | 360 | 0 | 1092,3 |
| 72 | La capilla | 06-05-2026 18:00 | 11,1 | 77 | 0 | 0 | 360 | 0 | 1091,8 |
| 71 | La capilla | 06-05-2026 17:45 | 11,8 | 75 | 0 | 0 | 360 | 5 | 1091,7 |
| 70 | La capilla | 06-05-2026 17:30 | 12,4 | 74 | 0 | 1,3 | 360 | 12 | 1091,4 |
| 69 | La capilla | 06-05-2026 17:15 | 12,8 | 73 | 0 | 1,3 | 360 | 19 | 1091,1 |
| 68 | La capilla | 06-05-2026 17:00 | 13,2 | 71 | 0 | 2,7 | 360 | 30 | 1090,8 |
| 67 | La capilla | 06-05-2026 16:30 | 13,3 | 74 | 0 | 1,8 | 360 | 65 | 1090,4 |
| 66 | La capilla | 06-05-2026 16:15 | 13,4 | 74 | 0 | 0 | 13 | 49 | 1090,1 |
| 65 | La capilla | 06-05-2026 16:00 | 13,8 | 72 | 0 | 1,3 | 355 | 53 | 1089,6 |
| 64 | La capilla | 06-05-2026 15:45 | 14,8 | 74 | 0 | 2,2 | 317 | 60 | 1089,3 |
| 63 | La capilla | 06-05-2026 15:30 | 14,8 | 79 | 0 | 1,3 | 355 | 190 | 1088,8 |
| 62 | La capilla | 06-05-2026 15:15 | 14,4 | 78 | 0 | 1,8 | 346 | 127 | 1088,4 |
| 61 | La capilla | 06-05-2026 15:00 | 15 | 76 | 0 | 3,6 | 274 | 142 | 1087,9 |
| 60 | La capilla | 06-05-2026 14:45 | 15,3 | 75 | 0 | 1,8 | 15 | 403 | 1087,4 |
| 59 | La capilla | 06-05-2026 14:30 | 15,7 | 74 | 0 | 2,2 | 300 | 656 | 1087 |
| 58 | La capilla | 06-05-2026 14:15 | 15,9 | 74 | 0 | 0,9 | 355 | 179 | 1086,5 |
| 57 | La capilla | 06-05-2026 14:00 | 16 | 72 | 0 | 0,4 | 94 | 292 | 1086,2 |
| 56 | La capilla | 06-05-2026 13:45 | 16,1 | 73 | 0 | 0,9 | 92 | 350 | 1085,8 |
| 55 | La capilla | 06-05-2026 13:30 | 15,8 | 80 | 0 | 2,2 | 52 | 466 | 1085,2 |
| 54 | La capilla | 06-05-2026 13:15 | 15,2 | 84 | 0,2 | 1,3 | 122 | 236 | 1084,8 |
| 53 | La capilla | 06-05-2026 13:00 | 14,6 | 89 | 0 | 0 | 360 | 487 | 1084,5 |
| 52 | La capilla | 06-05-2026 12:45 | 13,9 | 94 | 0 | 0 | 147 | 599 | 1084,3 |
| 51 | La capilla | 06-05-2026 12:30 | 13,1 | 97 | 0 | 0 | 157 | 251 | 1083,9 |
| 50 | La capilla | 06-05-2026 12:15 | 12,5 | 98 | 0 | 0 | 157 | 137 | 1083,8 |
| 49 | La capilla | 06-05-2026 12:00 | 12,1 | 98 | 0 | 0 | 360 | 151 | 1083,3 |
| 48 | La capilla | 06-05-2026 11:45 | 12,2 | 99 | 0 | 0,9 | 360 | 77 | 1083,1 |
| 47 | La capilla | 06-05-2026 11:30 | 12,3 | 99 | 0 | 0,9 | 360 | 84 | 1082,8 |
| 46 | La capilla | 06-05-2026 11:15 | 12,8 | 99 | 0 | 0,4 | 360 | 102 | 1082,3 |
| 45 | La capilla | 06-05-2026 11:00 | 13,6 | 100 | 0 | 0 | 360 | 84 | 1081,7 |
| 44 | La capilla | 06-05-2026 10:45 | 13,6 | 100 | 0 | 0 | 360 | 95 | 1081,1 |
| 43 | La capilla | 06-05-2026 10:30 | 13,3 | 100 | 0 | 0 | 360 | 223 | 1081 |
| 42 | La capilla | 06-05-2026 10:15 | 12,8 | 100 | 0 | 0 | 360 | 156 | 1080,9 |
| 41 | La capilla | 06-05-2026 10:00 | 12,6 | 100 | 0 | 0,4 | 360 | 77 | 1080,7 |
| 40 | La capilla | 06-05-2026 09:45 | 12,3 | 100 | 0 | 0 | 360 | 42 | 1080,5 |
| 39 | La capilla | 06-05-2026 09:30 | 12,2 | 100 | 0,4 | 0 | 360 | 33 | 1080,1 |
| 38 | La capilla | 06-05-2026 09:15 | 12,2 | 100 | 0,4 | 0,9 | 360 | 37 | 1079,8 |
| 37 | La capilla | 06-05-2026 09:00 | 12,2 | 100 | 0,6 | 0,4 | 360 | 12 | 1079,7 |
| 36 | La capilla | 06-05-2026 08:45 | 12,3 | 100 | 1,6 | 0,9 | 360 | 0 | 1079,5 |
| 35 | La capilla | 06-05-2026 08:30 | 12,3 | 100 | 0,4 | 0 | 360 | 0 | 1079,5 |
| 34 | La capilla | 06-05-2026 08:15 | 12,3 | 100 | 0 | 0 | 360 | 0 | 1079,2 |
| 33 | La capilla | 06-05-2026 08:00 | 12,3 | 100 | 0 | 0,4 | 360 | 0 | 1079,1 |
| 32 | La capilla | 06-05-2026 07:45 | 12,3 | 100 | 0 | 0,9 | 360 | 0 | 1079,2 |
| 31 | La capilla | 06-05-2026 07:30 | 12,2 | 100 | 0,4 | 0,9 | 360 | 0 | 1079,2 |
| 30 | La capilla | 06-05-2026 07:15 | 12,2 | 100 | 0,6 | 0,4 | 360 | 0 | 1078,9 |
| 29 | La capilla | 06-05-2026 07:00 | 12,2 | 100 | 0 | 1,8 | 360 | 0 | 1079 |
| 28 | La capilla | 06-05-2026 06:45 | 12,2 | 100 | 0,4 | 0,9 | 360 | 0 | 1079 |
| 27 | La capilla | 06-05-2026 06:30 | 12,2 | 100 | 0 | 0,4 | 360 | 0 | 1079,1 |
| 26 | La capilla | 06-05-2026 06:15 | 12,1 | 100 | 0,4 | 0 | 360 | 0 | 1079,1 |
| 25 | La capilla | 06-05-2026 06:00 | 12,2 | 100 | 3,4 | 0 | 360 | 0 | 1078,9 |
| 24 | La capilla | 06-05-2026 05:45 | 12,3 | 100 | 1,2 | 0 | 360 | 0 | 1078,9 |
| 23 | La capilla | 06-05-2026 05:30 | 12,3 | 100 | 0,6 | 0 | 360 | 0 | 1079,4 |
| 22 | La capilla | 06-05-2026 05:15 | 12,4 | 100 | 2,2 | 0,4 | 360 | 0 | 1079,4 |
| 21 | La capilla | 06-05-2026 05:00 | 12,3 | 100 | 2,2 | 0 | 360 | 0 | 1079,4 |
| 20 | La capilla | 06-05-2026 04:45 | 12,3 | 100 | 0,4 | 0,9 | 360 | 0 | 1079,3 |
| 19 | La capilla | 06-05-2026 04:30 | 12,3 | 100 | 0,4 | 0,9 | 360 | 0 | 1079,2 |
| 18 | La capilla | 06-05-2026 04:15 | 12,3 | 100 | 0,2 | 0,4 | 360 | 0 | 1079,4 |
| 17 | La capilla | 06-05-2026 04:00 | 12,2 | 100 | 0,4 | 0,4 | 360 | 0 | 1079,8 |
| 16 | La capilla | 06-05-2026 03:45 | 12,2 | 100 | 0,2 | 0 | 360 | 0 | 1079,8 |
| 15 | La capilla | 06-05-2026 03:30 | 12,2 | 100 | 0,2 | 0 | 360 | 0 | 1080 |
| 14 | La capilla | 06-05-2026 03:15 | 12,2 | 100 | 0,2 | 0 | 360 | 0 | 1080,3 |
| 13 | La capilla | 06-05-2026 03:00 | 12,2 | 100 | 0,4 | 0 | 360 | 0 | 1080,5 |
| 12 | La capilla | 06-05-2026 02:45 | 12,2 | 100 | 0,2 | 0 | 360 | 0 | 1080,9 |
| 11 | La capilla | 06-05-2026 02:30 | 12,2 | 100 | 0,4 | 0,4 | 360 | 0 | 1080,9 |
| 10 | La capilla | 06-05-2026 02:15 | 12,1 | 100 | 1,6 | 0 | 360 | 0 | 1081 |
| 9 | La capilla | 06-05-2026 02:00 | 12 | 100 | 0,4 | 0,4 | 360 | 0 | 1081,1 |
| 8 | La capilla | 06-05-2026 01:45 | 12 | 100 | 0,8 | 0 | 360 | 0 | 1081 |
| 7 | La capilla | 06-05-2026 01:30 | 11,9 | 100 | 0,4 | 0 | 360 | 0 | 1081,2 |
| 6 | La capilla | 06-05-2026 01:15 | 11,9 | 100 | 0,2 | 0 | 360 | 0 | 1081 |
| 5 | La capilla | 06-05-2026 01:00 | 11,8 | 100 | 0 | 0 | 360 | 0 | 1081,2 |
| 4 | La capilla | 06-05-2026 00:45 | 11,8 | 99 | 0,6 | 0,4 | 360 | 0 | 1081,3 |
| 3 | La capilla | 06-05-2026 00:30 | 11,9 | 100 | 0,6 | 0 | 360 | 0 | 1081,9 |
| 2 | La capilla | 06-05-2026 00:15 | 11,9 | 100 | 1,2 | 0,9 | 360 | 0 | 1082,4 |
| 1 | La capilla | 06-05-2026 00:00 | 11,9 | 99 | 1,6 | 0 | 360 | 0 | 1082,3 |